If you wish to contribute or participate in the discussions about articles you are invited to join SKYbrary as a registered user

 Actions

Ascension

From SKYbrary Wiki

FHAW
Airport
ICAO: FHAW
Summary
Name Ascension
Region South America and Caribbean
Territory Saint Helena SH.gif
Location Ascension Island
Serving
Coordinates -7° 58' 9.9998", -14° 23' 38"
Close to South Atlantic Ocean
Runways
Designator Length Width Surface ROPS
13/31 3054 m10,019.685 ft 46 m150.919 ft ASP yes/yes
METAR
Observation FHAW 130250Z 12010KT 9999 FEW012 SCT025 22/20 Q1012 BLU
Station Wide Awake Field Ascension Island
Date/Time 13 December 2017 02:50:00
Wind direction 120°
Wind speed 10 kts
Lowest cloud amount few clouds
Temperature 22°C
Dew point 20°C
Humidity 88%
QNH 1012 hPa
Weather condition n/a

BS
Tag(s) Bird Strike
Non Avian Wildlife Hazards to Aircraft
WX
Tag(s) Cumulonimbus
Low Level Turbulence

Ascension Airport/Wideawake

ICAO: FHAW IATA: ASI

Description

International civil/military airport serving the British island of Ascension.

Climatology

(Köppen climate classification Aw)

Maps

Terrain

Loading map...

Airport Layout

Loading map...


Accidents & Serious Incidents at or in vicinity of FHAW

None on SKYbrary